Time;durP1;ratioP1;P1;durP2;ratioP2;P2;SDS_P1;SDS_P2;PMS_P1;PMS_P2;Temp;Humidity;BMP_temperature;BMP_pressure;BME280_temperature;BME280_humidity;BME280_pressure;Samples;Min_cycle;Max_cycle;Signal;HPM_P1;HPM_P2
2022/09/26 00:00:45;;;;;;;5.50;4.13;;;;;20.70;99907.00;;;;2078007;28;20662;-56
2022/09/26 00:01:46;;;;;;;4.40;3.53;;;;;20.70;99905.00;;;;2078743;28;20564;-55
2022/09/26 00:02:46;;;;;;;4.30;3.60;;;;;20.70;99929.00;;;;2078609;28;20574;-56
2022/09/26 00:03:51;;;;;;;5.50;4.10;;;;;20.70;99918.00;;;;2078371;28;20691;-55
2022/09/26 00:04:52;;;;;;;4.80;4.05;;;;;20.70;99908.00;;;;2061445;28;20226;-55
2022/09/26 00:05:52;;;;;;;6.07;3.92;;;;;20.60;99896.00;;;;2068148;28;20222;-54
2022/09/26 00:06:54;;;;;;;4.00;3.30;;;;;20.60;99894.00;;;;2077240;28;20689;-54
2022/09/26 00:07:54;;;;;;;4.60;3.40;;;;;20.70;99890.00;;;;2069564;28;20210;-56
2022/09/26 00:08:55;;;;;;;4.47;3.70;;;;;20.70;99889.00;;;;2071941;28;20619;-55
2022/09/26 00:09:55;;;;;;;4.50;3.10;;;;;20.60;99886.00;;;;2078720;28;20605;-55
2022/09/26 00:10:59;;;;;;;4.30;3.20;;;;;20.60;99885.00;;;;2078813;28;20716;-56
2022/09/26 00:12:00;;;;;;;4.15;3.17;;;;;20.60;99886.00;;;;2078815;28;20224;-54
2022/09/26 00:13:01;;;;;;;4.53;3.33;;;;;20.60;99885.00;;;;2078619;28;21275;-54
2022/09/26 00:14:04;;;;;;;4.10;3.43;;;;;20.60;99875.00;;;;2078408;28;20905;-55
2022/09/26 00:15:05;;;;;;;6.20;3.58;;;;;20.60;99877.00;;;;2078383;28;20221;-56
2022/09/26 00:16:06;;;;;;;3.13;2.83;;;;;20.60;99869.00;;;;2078324;28;20241;-55
2022/09/26 00:17:06;;;;;;;4.90;3.43;;;;;20.70;99873.00;;;;2078155;28;20535;-56
2022/09/26 00:18:06;;;;;;;3.67;2.93;;;;;20.60;99874.00;;;;2074484;28;20222;-55
2022/09/26 00:19:07;;;;;;;3.27;2.97;;;;;20.60;99863.00;;;;2070512;28;20206;-55
2022/09/26 00:20:08;;;;;;;3.67;3.13;;;;;20.60;99864.00;;;;2070632;28;20218;-55
2022/09/26 00:21:12;;;;;;;4.87;3.40;;;;;20.60;99862.00;;;;2070349;28;20222;-54
2022/09/26 00:22:12;;;;;;;5.72;3.83;;;;;20.60;99857.00;;;;2066342;28;20460;-59
2022/09/26 00:23:13;;;;;;;4.87;3.13;;;;;20.60;99863.00;;;;2070302;28;20388;-56
2022/09/26 00:24:13;;;;;;;3.70;3.20;;;;;20.60;99859.00;;;;2070418;28;20301;-55
2022/09/26 00:25:13;;;;;;;4.60;3.27;;;;;20.60;99848.00;;;;2070528;28;20229;-55
2022/09/26 00:26:14;;;;;;;3.60;2.60;;;;;20.60;99854.00;;;;2070083;28;20678;-55
2022/09/26 00:27:15;;;;;;;3.10;2.78;;;;;20.70;99826.00;;;;2072405;28;20678;-55
2022/09/26 00:28:15;;;;;;;4.23;3.40;;;;;20.60;99844.00;;;;2071677;28;20217;-55
2022/09/26 00:29:16;;;;;;;3.80;2.70;;;;;20.60;99841.00;;;;2076228;28;20695;-54
2022/09/26 00:30:16;;;;;;;4.07;2.80;;;;;20.20;99840.00;;;;2070319;28;20686;-55
2022/09/26 00:31:19;;;;;;;4.87;3.30;;;;;20.60;99834.00;;;;2070264;28;20681;-55
2022/09/26 00:32:19;;;;;;;4.28;2.97;;;;;20.60;99833.00;;;;2061303;28;20254;-55
2022/09/26 00:33:20;;;;;;;4.03;2.90;;;;;20.60;99832.00;;;;2061299;28;20218;-54
2022/09/26 00:34:20;;;;;;;3.10;2.70;;;;;20.60;99825.00;;;;2069443;28;20218;-55
2022/09/26 00:35:20;;;;;;;3.50;2.83;;;;;20.60;99842.00;;;;2068321;28;20260;-55
2022/09/26 00:36:21;;;;;;;3.23;2.93;;;;;20.60;99829.00;;;;2070040;28;20210;-55
2022/09/26 00:37:21;;;;;;;3.33;3.03;;;;;20.60;99829.00;;;;2076529;28;20748;-55
2022/09/26 00:38:21;;;;;;;4.03;3.10;;;;;20.60;99839.00;;;;2077698;28;20681;-56
2022/09/26 00:39:22;;;;;;;4.10;3.13;;;;;20.60;99824.00;;;;2074885;28;20898;-54
2022/09/26 00:40:26;;;;;;;3.50;2.73;;;;;20.60;99788.00;;;;2070028;28;20230;-55
2022/09/26 00:41:27;;;;;;;4.80;3.00;;;;;20.60;99811.00;;;;2061154;28;20741;-54
2022/09/26 00:42:27;;;;;;;3.97;3.07;;;;;20.60;99819.00;;;;2061970;28;20345;-55
2022/09/26 00:43:35;;;;;;;3.13;2.50;;;;;20.60;99819.00;;;;2068842;28;20220;-55
2022/09/26 00:44:47;;;;;;;3.50;2.55;;;;;20.60;99824.00;;;;2068773;28;20248;-55
2022/09/26 00:45:47;;;;;;;2.88;2.13;;;;;20.50;99809.00;;;;2073512;28;20218;-55
2022/09/26 00:46:48;;;;;;;3.63;2.80;;;;;20.60;99781.00;;;;2077390;28;20217;-55
2022/09/26 00:48:06;;;;;;;2.23;2.03;;;;;20.60;99811.00;;;;2075785;28;20224;-55
2022/09/26 00:49:25;;;;;;;3.85;2.95;;;;;20.60;99810.00;;;;2069012;28;20959;-55
2022/09/26 00:50:34;;;;;;;3.35;2.75;;;;;20.60;99817.00;;;;2077158;28;20336;-54
2022/09/26 00:51:35;;;;;;;4.88;2.50;;;;;20.60;99776.00;;;;2077069;28;20342;-55
2022/09/26 00:52:38;;;;;;;4.15;2.55;;;;;20.50;99808.00;;;;2068975;28;20222;-55
2022/09/26 00:53:41;;;;;;;2.90;2.60;;;;;20.60;99778.00;;;;2069259;28;20301;-55
2022/09/26 00:54:44;;;;;;;3.63;2.55;;;;;20.60;99779.00;;;;2069208;28;20301;-55
2022/09/26 00:55:51;;;;;;;3.58;2.40;;;;;20.50;99806.00;;;;2069089;28;20218;-55
2022/09/26 00:56:51;;;;;;;3.03;2.60;;;;;20.50;99800.00;;;;2076035;28;20233;-55
2022/09/26 00:57:55;;;;;;;3.33;2.77;;;;;20.50;99799.00;;;;2075553;28;20213;-54
2022/09/26 00:59:06;;;;;;;2.50;2.30;;;;;20.50;99804.00;;;;2069266;28;20607;-55
2022/09/26 01:00:09;;;;;;;2.50;2.08;;;;;20.50;99800.00;;;;2069681;28;20276;-55
2022/09/26 01:01:09;;;;;;;2.88;2.55;;;;;20.60;99801.00;;;;2075607;28;20308;-55
2022/09/26 01:02:09;;;;;;;3.20;2.57;;;;;20.60;99794.00;;;;2060987;28;20765;-55
2022/09/26 01:03:10;;;;;;;3.10;2.40;;;;;20.60;99788.00;;;;2060584;28;20210;-54
2022/09/26 01:04:10;;;;;;;2.90;2.17;;;;;20.60;99779.00;;;;2076376;28;20229;-55
2022/09/26 01:05:13;;;;;;;2.60;2.20;;;;;20.50;99785.00;;;;2068671;28;20659;-54
2022/09/26 01:06:14;;;;;;;3.65;2.38;;;;;20.50;99788.00;;;;2069255;28;20221;-54
2022/09/26 01:07:17;;;;;;;3.00;2.43;;;;;20.50;99795.00;;;;2051776;28;20223;-54
2022/09/26 01:08:20;;;;;;;4.13;2.20;;;;;20.50;99802.00;;;;2052590;28;20467;-54
2022/09/26 01:09:20;;;;;;;2.47;2.20;;;;;20.50;99782.00;;;;2069034;28;20236;-54
2022/09/26 01:10:23;;;;;;;2.60;2.40;;;;;20.50;99786.00;;;;2069203;28;20206;-55
2022/09/26 01:11:23;;;;;;;3.03;2.42;;;;;20.50;99786.00;;;;2065433;28;20238;-54
2022/09/26 01:12:24;;;;;;;2.40;2.20;;;;;20.60;99783.00;;;;2069072;28;20261;-55
2022/09/26 01:13:25;;;;;;;2.97;2.40;;;;;20.50;99802.00;;;;2069240;28;20206;-56
2022/09/26 01:14:25;;;;;;;2.95;2.30;;;;;20.60;99745.00;;;;2067921;28;20316;-57
2022/09/26 01:15:25;;;;;;;2.30;2.10;;;;;20.60;99783.00;;;;2061160;28;20679;-54
2022/09/26 01:16:26;;;;;;;2.97;2.33;;;;;20.60;99779.00;;;;2068343;28;20218;-55
2022/09/26 01:17:26;;;;;;;2.43;2.00;;;;;20.50;99744.00;;;;2076017;28;20205;-56
2022/09/26 01:18:27;;;;;;;2.57;2.10;;;;;20.20;99774.00;;;;2069237;28;20214;-55
2022/09/26 01:19:49;;;;;;;5.23;2.30;;;;;20.60;99776.00;;;;2069440;28;20217;-55
2022/09/26 01:21:06;;;;;;;3.35;2.15;;;;;20.50;99771.00;;;;2077008;28;20284;-54
2022/09/26 01:22:40;;;;;;;2.60;2.40;;;;;20.60;99767.00;;;;2070762;28;20437;-54
2022/09/26 01:24:00;;;;;;;3.65;2.28;;;;;20.60;99765.00;;;;2072939;28;20282;-55
2022/09/26 01:25:18;;;;;;;2.97;2.30;;;;;20.60;99762.00;;;;2076515;28;20736;-54
2022/09/26 01:26:48;;;;;;;4.22;2.30;;;;;20.50;99755.00;;;;2076874;28;20228;-55
2022/09/26 01:28:19;;;;;;;2.92;2.40;;;;;20.60;99753.00;;;;2072723;28;20336;-55
2022/09/26 01:29:39;;;;;;;2.78;2.03;;;;;20.50;99736.00;;;;2075945;28;20213;-61
2022/09/26 01:30:45;;;;;;;3.25;1.98;;;;;20.50;99731.00;;;;2067937;28;20237;-54
2022/09/26 01:33:38;;;;;;;4.10;2.30;;;;;20.50;99745.00;;;;2076867;28;20575;-54
2022/09/26 01:34:49;;;;;;;2.78;2.17;;;;;20.50;99746.00;;;;2069675;28;20236;-54
2022/09/26 01:36:05;;;;;;;3.58;2.20;;;;;20.50;99741.00;;;;2072232;28;20604;-53
2022/09/26 01:37:29;;;;;;;3.35;2.10;;;;;20.50;99740.00;;;;2076603;28;20231;-55
2022/09/26 01:38:36;;;;;;;2.60;1.88;;;;;20.50;99733.00;;;;2077003;28;20597;-55
2022/09/26 01:39:55;;;;;;;2.65;2.10;;;;;20.50;99738.00;;;;2077170;28;20221;-55
2022/09/26 01:41:11;;;;;;;2.15;1.92;;;;;20.50;99728.00;;;;2068808;28;20210;-55
2022/09/26 01:42:20;;;;;;;2.85;1.92;;;;;20.50;99736.00;;;;2074617;28;20626;-55
2022/09/26 01:43:22;;;;;;;2.90;1.95;;;;;20.50;99730.00;;;;2083907;28;20231;-55
2022/09/26 01:44:35;;;;;;;3.33;2.17;;;;;20.50;99738.00;;;;2068833;28;20277;-55
2022/09/26 01:45:57;;;;;;;2.22;2.03;;;;;20.50;99746.00;;;;2070452;28;20598;-55
2022/09/26 01:47:26;;;;;;;2.20;1.90;;;;;20.50;99728.00;;;;2077341;28;20256;-55
2022/09/26 01:48:30;;;;;;;2.35;2.05;;;;;20.50;99736.00;;;;2074908;28;20209;-55
2022/09/26 01:49:36;;;;;;;2.65;1.85;;;;;20.50;99731.00;;;;2064345;28;21023;-55
2022/09/26 01:51:04;;;;;;;4.30;2.38;;;;;20.50;99731.00;;;;2069562;28;20218;-55
2022/09/26 01:52:10;;;;;;;2.40;2.00;;;;;20.50;99738.00;;;;2076135;28;20235;-55
2022/09/26 01:53:15;;;;;;;3.63;2.10;;;;;20.50;99738.00;;;;2076879;28;20213;-55
2022/09/26 01:54:23;;;;;;;2.80;2.08;;;;;20.50;99730.00;;;;2068617;28;20714;-55
2022/09/26 01:55:34;;;;;;;2.95;1.80;;;;;20.50;99691.00;;;;2071430;28;20225;-55
2022/09/26 01:56:36;;;;;;;2.85;1.88;;;;;20.50;99733.00;;;;2064841;28;20484;-55
2022/09/26 01:57:54;;;;;;;2.45;2.15;;;;;20.50;99709.00;;;;2067918;28;20245;-55
2022/09/26 01:59:16;;;;;;;1.70;1.58;;;;;20.50;99729.00;;;;2071300;28;20961;-55
2022/09/26 02:00:17;;;;;;;3.50;1.95;;;;;20.50;99735.00;;;;2063629;28;20225;-55
2022/09/26 02:01:17;;;;;;;2.10;1.60;;;;;20.50;99728.00;;;;2069038;28;20226;-55
2022/09/26 02:02:24;;;;;;;2.23;1.90;;;;;20.50;99716.00;;;;2069039;28;20214;-55
2022/09/26 02:03:27;;;;;;;2.55;2.10;;;;;20.50;99728.00;;;;2054424;28;20219;-55
2022/09/26 02:04:31;;;;;;;1.80;1.55;;;;;20.50;99730.00;;;;2061775;28;20906;-54
2022/09/26 02:05:34;;;;;;;4.05;1.92;;;;;19.90;99714.00;;;;2069260;28;20263;-55
2022/09/26 02:06:57;;;;;;;3.78;2.08;;;;;20.40;99717.00;;;;2069296;28;20216;-55
2022/09/26 02:08:02;;;;;;;2.03;1.60;;;;;20.50;99727.00;;;;2075857;28;20736;-55
2022/09/26 02:09:31;;;;;;;2.53;2.00;;;;;20.40;99715.00;;;;2068455;28;20209;-55
2022/09/26 02:10:44;;;;;;;2.40;2.13;;;;;20.40;99718.00;;;;2066970;28;20296;-55
2022/09/26 02:11:47;;;;;;;2.97;2.08;;;;;20.40;99713.00;;;;2070559;28;20698;-55
2022/09/26 02:12:49;;;;;;;2.47;1.75;;;;;20.50;99708.00;;;;2069217;28;20301;-55
2022/09/26 02:14:04;;;;;;;4.50;2.03;;;;;20.40;99708.00;;;;2077045;28;20693;-54
2022/09/26 02:15:08;;;;;;;2.85;2.35;;;;;20.40;99695.00;;;;2077399;28;20241;-55
2022/09/26 02:16:10;;;;;;;3.10;2.03;;;;;20.50;99696.00;;;;2076401;28;20214;-55
2022/09/26 02:17:13;;;;;;;2.03;1.83;;;;;20.40;99698.00;;;;2068409;28;20234;-55
2022/09/26 02:18:16;;;;;;;3.42;2.35;;;;;20.50;99699.00;;;;2069580;28;20214;-55
2022/09/26 02:19:20;;;;;;;3.25;2.05;;;;;20.40;99701.00;;;;2063417;28;20211;-55
2022/09/26 02:20:31;;;;;;;6.30;2.10;;;;;20.40;99697.00;;;;2065055;28;20744;-55
2022/09/26 02:21:31;;;;;;;3.78;2.47;;;;;20.40;99688.00;;;;2070911;28;20273;-56
2022/09/26 02:22:32;;;;;;;2.67;2.30;;;;;20.40;99686.00;;;;2078358;28;20248;-56
2022/09/26 02:23:33;;;;;;;3.13;2.35;;;;;20.40;99689.00;;;;2078400;28;20792;-55
2022/09/26 02:24:33;;;;;;;3.57;1.90;;;;;20.40;99693.00;;;;2070381;28;20325;-55
2022/09/26 02:25:34;;;;;;;2.37;1.97;;;;;20.40;99690.00;;;;2078775;28;20221;-55
2022/09/26 02:26:34;;;;;;;2.65;2.45;;;;;20.40;99685.00;;;;2078565;28;20300;-55
2022/09/26 02:27:35;;;;;;;2.67;2.17;;;;;20.40;99680.00;;;;2076986;28;20595;-55
2022/09/26 02:28:35;;;;;;;3.00;2.17;;;;;20.50;99678.00;;;;2078441;28;20299;-55
2022/09/26 02:29:35;;;;;;;3.30;2.33;;;;;20.50;99669.00;;;;2078714;28;20241;-55
2022/09/26 02:30:36;;;;;;;3.93;2.17;;;;;20.40;99678.00;;;;2078845;28;20210;-55
2022/09/26 02:31:38;;;;;;;3.83;2.20;;;;;20.40;99673.00;;;;2062127;28;20292;-55
2022/09/26 02:32:39;;;;;;;3.72;2.05;;;;;20.40;99664.00;;;;2054387;28;20223;-56
2022/09/26 02:33:39;;;;;;;2.33;1.80;;;;;20.40;99668.00;;;;2063570;28;21255;-55
2022/09/26 02:34:44;;;;;;;3.40;2.10;;;;;20.40;99667.00;;;;2070324;28;20222;-55
2022/09/26 02:35:54;;;;;;;2.80;2.38;;;;;20.40;99660.00;;;;2072394;28;20225;-55
2022/09/26 02:36:54;;;;;;;2.95;2.50;;;;;20.40;99661.00;;;;2071215;28;20628;-55
2022/09/26 02:37:55;;;;;;;2.97;2.30;;;;;20.40;99658.00;;;;2069973;28;20353;-55
2022/09/26 02:38:55;;;;;;;1.87;1.57;;;;;20.40;99653.00;;;;2078470;28;20678;-55
2022/09/26 02:39:55;;;;;;;3.00;2.40;;;;;20.40;99661.00;;;;2079023;28;20682;-55
2022/09/26 02:40:56;;;;;;;4.70;2.40;;;;;20.40;99647.00;;;;2079114;28;20271;-55
2022/09/26 02:42:02;;;;;;;3.97;2.37;;;;;20.40;99568.00;;;;2079223;28;20245;-55
2022/09/26 02:43:32;;;;;;;4.10;2.47;;;;;20.40;99652.00;;;;2070306;28;20218;-55
2022/09/26 02:45:13;;;;;;;3.20;2.40;;;;;20.40;99647.00;;;;2078026;28;20216;-55
2022/09/26 02:46:40;;;;;;;2.42;2.22;;;;;20.40;99623.00;;;;2054810;28;20416;-55
2022/09/26 02:47:55;;;;;;;3.95;2.78;;;;;20.40;99644.00;;;;2059646;28;21156;-55
2022/09/26 02:49:33;;;;;;;3.20;2.60;;;;;20.40;99634.00;;;;2070436;28;20209;-55
2022/09/26 02:50:48;;;;;;;3.38;2.50;;;;;20.40;99637.00;;;;2078682;28;20217;-55
2022/09/26 02:52:10;;;;;;;2.97;2.10;;;;;20.40;99633.00;;;;2078769;28;20211;-55
2022/09/26 02:53:31;;;;;;;5.30;2.80;;;;;20.40;99632.00;;;;2071631;28;20222;-54
2022/09/26 02:54:50;;;;;;;2.35;2.15;;;;;20.40;99602.00;;;;2078963;28;20221;-55
2022/09/26 02:56:34;;;;;;;3.55;2.67;;;;;20.40;99630.00;;;;2078269;28;20224;-54
2022/09/26 02:58:02;;;;;;;3.70;2.50;;;;;20.40;99621.00;;;;2058488;28;20219;-55
2022/09/26 02:59:09;;;;;;;3.38;2.45;;;;;20.40;99619.00;;;;2057331;28;21286;-56
2022/09/26 03:00:18;;;;;;;3.22;2.17;;;;;20.40;99620.00;;;;2051394;28;20219;-55
2022/09/26 03:01:40;;;;;;;2.90;2.60;;;;;20.40;99624.00;;;;2045392;28;20220;-55
2022/09/26 03:02:53;;;;;;;2.75;2.47;;;;;20.40;99606.00;;;;2040182;28;20768;-55
2022/09/26 03:03:59;;;;;;;3.80;2.55;;;;;20.40;99609.00;;;;2070154;28;20217;-55
2022/09/26 03:05:02;;;;;;;3.35;2.30;;;;;20.40;99610.00;;;;2062966;28;20609;-55
2022/09/26 03:06:03;;;;;;;5.15;2.40;;;;;20.40;99600.00;;;;2062344;28;20219;-54
2022/09/26 03:07:06;;;;;;;3.53;2.85;;;;;20.40;99601.00;;;;2069949;28;20245;-55
2022/09/26 03:08:10;;;;;;;3.33;2.78;;;;;20.40;99607.00;;;;2065775;28;20218;-55
2022/09/26 03:09:11;;;;;;;2.80;2.35;;;;;20.40;99596.00;;;;2070351;28;20235;-55
2022/09/26 03:10:11;;;;;;;3.10;2.50;;;;;20.40;99610.00;;;;2078324;28;20233;-55
2022/09/26 03:11:15;;;;;;;2.73;2.47;;;;;20.40;99593.00;;;;2061624;28;20565;-56
2022/09/26 03:12:16;;;;;;;4.00;2.75;;;;;20.40;99594.00;;;;2055195;28;20232;-55
2022/09/26 03:13:16;;;;;;;2.97;2.67;;;;;20.40;99564.00;;;;2070239;28;20244;-56
2022/09/26 03:14:16;;;;;;;3.93;3.10;;;;;20.40;99599.00;;;;2069817;28;20203;-55
2022/09/26 03:15:17;;;;;;;3.20;2.53;;;;;20.40;99597.00;;;;2078200;28;20201;-54
2022/09/26 03:16:17;;;;;;;3.60;2.80;;;;;20.40;99615.00;;;;2069964;28;20290;-55
2022/09/26 03:17:18;;;;;;;3.17;2.40;;;;;20.40;99549.00;;;;2069477;28;21072;-55
2022/09/26 03:18:19;;;;;;;2.90;2.60;;;;;20.40;99588.00;;;;2077523;28;20706;-55
2022/09/26 03:19:26;;;;;;;3.55;2.53;;;;;20.30;99647.00;;;;2070241;28;20758;-55
2022/09/26 03:20:26;;;;;;;3.85;2.70;;;;;20.40;99580.00;;;;2077917;28;20228;-54
2022/09/26 03:21:26;;;;;;;2.70;2.47;;;;;20.40;99582.00;;;;2069732;28;20210;-55
2022/09/26 03:22:27;;;;;;;5.03;2.80;;;;;20.40;99544.00;;;;2070116;28;20276;-55
2022/09/26 03:23:27;;;;;;;3.03;2.70;;;;;20.40;99582.00;;;;2078109;28;20220;-54
2022/09/26 03:24:28;;;;;;;3.47;2.80;;;;;20.30;99573.00;;;;2078211;28;20210;-55
2022/09/26 03:25:28;;;;;;;3.00;2.60;;;;;20.40;99577.00;;;;2078098;28;20787;-55
2022/09/26 03:26:28;;;;;;;2.90;2.23;;;;;20.40;99577.00;;;;2069774;28;20212;-55
2022/09/26 03:27:30;;;;;;;3.17;2.37;;;;;20.40;99565.00;;;;2068443;28;20218;-55
2022/09/26 03:28:31;;;;;;;3.38;2.30;;;;;20.40;99567.00;;;;2071588;28;20252;-55
2022/09/26 03:29:31;;;;;;;3.30;2.77;;;;;20.30;99568.00;;;;2069809;28;20694;-55
2022/09/26 03:30:32;;;;;;;2.97;2.67;;;;;20.40;99568.00;;;;2074991;28;20815;-55
2022/09/26 03:31:32;;;;;;;3.70;3.30;;;;;20.40;99565.00;;;;2078890;28;21006;-54
2022/09/26 03:32:32;;;;;;;4.00;2.73;;;;;20.40;99560.00;;;;2077751;28;20740;-55
2022/09/26 03:33:33;;;;;;;2.40;2.10;;;;;20.40;99565.00;;;;2078127;28;20209;-55
2022/09/26 03:34:33;;;;;;;3.30;2.57;;;;;20.40;99557.00;;;;2078678;28;20214;-55
2022/09/26 03:35:33;;;;;;;3.77;2.30;;;;;20.40;99555.00;;;;2077381;28;20213;-55
2022/09/26 03:36:34;;;;;;;2.63;2.40;;;;;20.30;99551.00;;;;2070425;28;20222;-55
2022/09/26 03:37:36;;;;;;;3.20;2.80;;;;;20.30;99549.00;;;;2068282;28;20218;-55
2022/09/26 03:38:36;;;;;;;3.25;2.95;;;;;20.40;99557.00;;;;2061416;28;20282;-55
2022/09/26 03:39:36;;;;;;;4.33;2.60;;;;;20.30;99545.00;;;;2069945;28;20221;-55
2022/09/26 03:40:38;;;;;;;3.37;2.33;;;;;20.30;99547.00;;;;2070570;28;20226;-55
2022/09/26 03:41:38;;;;;;;4.90;2.65;;;;;20.40;99549.00;;;;2069898;28;20312;-55
2022/09/26 03:42:39;;;;;;;3.50;2.67;;;;;20.30;99537.00;;;;2061870;28;20219;-54
2022/09/26 03:43:42;;;;;;;2.50;2.30;;;;;20.30;99547.00;;;;2069829;28;20617;-55
2022/09/26 03:44:42;;;;;;;2.63;2.40;;;;;20.30;99536.00;;;;2070748;28;20289;-57
2022/09/26 03:45:43;;;;;;;4.07;2.87;;;;;20.40;99546.00;;;;2070154;28;20268;-55
2022/09/26 03:46:43;;;;;;;3.30;2.60;;;;;20.30;99541.00;;;;2070650;28;20210;-55
2022/09/26 03:47:43;;;;;;;3.10;2.70;;;;;20.30;99540.00;;;;2068355;28;20218;-56
2022/09/26 03:48:44;;;;;;;5.60;2.53;;;;;20.30;99535.00;;;;2069799;28;20221;-56
2022/09/26 03:49:44;;;;;;;4.43;2.50;;;;;20.40;99548.00;;;;2069936;28;20233;-56
2022/09/26 03:50:44;;;;;;;3.90;3.10;;;;;20.30;99534.00;;;;2069934;28;20214;-56
2022/09/26 03:51:45;;;;;;;2.70;2.50;;;;;20.30;99530.00;;;;2074848;28;20652;-57
2022/09/26 03:52:45;;;;;;;3.90;2.50;;;;;20.40;99573.00;;;;2077664;28;20685;-56
2022/09/26 03:53:46;;;;;;;4.50;2.53;;;;;20.30;99534.00;;;;2078102;28;20712;-55
2022/09/26 03:54:46;;;;;;;3.63;3.20;;;;;20.30;99528.00;;;;2077011;28;20788;-55
2022/09/26 03:55:46;;;;;;;2.50;2.30;;;;;20.30;99526.00;;;;2078722;28;20727;-55
2022/09/26 03:56:47;;;;;;;3.70;2.50;;;;;20.30;99526.00;;;;2078608;28;20236;-55
2022/09/26 03:57:47;;;;;;;2.80;2.60;;;;;20.30;99532.00;;;;2076962;28;20217;-55
2022/09/26 03:58:47;;;;;;;2.80;2.50;;;;;20.30;99517.00;;;;2078030;28;20225;-55
2022/09/26 03:59:48;;;;;;;2.87;2.67;;;;;20.30;99506.00;;;;2078251;28;20238;-54
2022/09/26 04:00:49;;;;;;;4.53;2.67;;;;;20.30;99529.00;;;;2071647;28;20321;-55
2022/09/26 04:01:49;;;;;;;4.03;2.87;;;;;20.30;99528.00;;;;2078399;28;20220;-56
2022/09/26 04:02:50;;;;;;;3.70;2.90;;;;;20.30;99518.00;;;;2078441;28;20774;-55
2022/09/26 04:03:50;;;;;;;2.83;2.50;;;;;20.30;99518.00;;;;2078362;28;20220;-54
2022/09/26 04:04:50;;;;;;;3.43;2.70;;;;;20.30;99514.00;;;;2078467;28;20225;-55
2022/09/26 04:05:51;;;;;;;3.10;2.60;;;;;20.30;99508.00;;;;2078382;28;20222;-55
2022/09/26 04:06:51;;;;;;;3.37;2.73;;;;;20.30;99509.00;;;;2078375;28;20213;-57
2022/09/26 04:07:51;;;;;;;3.90;3.03;;;;;20.30;99505.00;;;;2075873;28;20229;-56
2022/09/26 04:08:52;;;;;;;2.87;2.50;;;;;20.30;99509.00;;;;2078319;28;20227;-56
2022/09/26 04:09:52;;;;;;;3.10;2.80;;;;;20.30;99502.00;;;;2078490;28;20206;-55
2022/09/26 04:10:58;;;;;;;2.93;2.57;;;;;20.30;99350.00;;;;2078182;28;20225;-53
2022/09/26 04:11:59;;;;;;;3.45;2.92;;;;;20.30;99505.00;;;;2078093;28;20255;-54
2022/09/26 04:12:59;;;;;;;2.67;2.47;;;;;20.30;99498.00;;;;2078015;28;20210;-55
2022/09/26 04:14:00;;;;;;;3.30;3.00;;;;;20.30;99500.00;;;;2078125;28;21328;-55
2022/09/26 04:15:01;;;;;;;3.10;2.77;;;;;20.30;99489.00;;;;2078422;28;20990;-55
2022/09/26 04:16:01;;;;;;;3.80;2.90;;;;;20.30;99493.00;;;;2078473;28;20697;-55
2022/09/26 04:17:02;;;;;;;3.87;3.20;;;;;20.30;99490.00;;;;2078490;28;20448;-55
2022/09/26 04:18:02;;;;;;;4.00;3.30;;;;;20.30;99487.00;;;;2076309;28;20271;-56
2022/09/26 04:19:02;;;;;;;5.03;2.60;;;;;20.30;99492.00;;;;2077663;28;20205;-55
2022/09/26 04:20:03;;;;;;;4.47;2.80;;;;;20.30;99492.00;;;;2078219;28;20221;-55
2022/09/26 04:21:08;;;;;;;5.67;3.20;;;;;20.30;99484.00;;;;2068358;28;20251;-55
2022/09/26 04:22:09;;;;;;;4.35;2.70;;;;;20.30;99483.00;;;;2070270;28;20567;-55
2022/09/26 04:23:09;;;;;;;2.87;2.67;;;;;20.30;99482.00;;;;2077673;28;20259;-54
2022/09/26 04:24:13;;;;;;;2.97;2.67;;;;;20.30;99474.00;;;;2078267;28;20301;-55
2022/09/26 04:25:14;;;;;;;3.33;2.50;;;;;20.30;99477.00;;;;2077624;28;20652;-55
2022/09/26 04:26:16;;;;;;;5.33;2.97;;;;;20.30;99473.00;;;;2077593;28;20225;-54
2022/09/26 04:27:17;;;;;;;4.45;2.40;;;;;20.30;99325.00;;;;2077927;28;20225;-55
2022/09/26 04:28:18;;;;;;;3.27;2.80;;;;;20.30;99474.00;;;;2077450;28;20308;-55
2022/09/26 04:29:18;;;;;;;3.90;2.50;;;;;20.30;99477.00;;;;2078361;28;20705;-55
2022/09/26 04:30:18;;;;;;;5.03;2.87;;;;;20.30;99466.00;;;;2077433;28;20244;-55
2022/09/26 04:31:20;;;;;;;3.00;2.70;;;;;20.30;99468.00;;;;2077608;28;20213;-55
2022/09/26 04:32:20;;;;;;;3.50;2.70;;;;;20.30;99461.00;;;;2077829;28;20605;-55
2022/09/26 04:33:21;;;;;;;4.90;3.10;;;;;20.30;99466.00;;;;2076406;28;20236;-56
2022/09/26 04:34:23;;;;;;;3.30;2.80;;;;;20.30;99462.00;;;;2074620;28;20242;-55
2022/09/26 04:35:24;;;;;;;3.55;2.70;;;;;20.30;99471.00;;;;2074214;28;20278;-55
2022/09/26 04:36:24;;;;;;;3.95;2.85;;;;;20.30;99466.00;;;;2076704;28;20300;-54
2022/09/26 04:37:24;;;;;;;4.10;2.70;;;;;20.30;99460.00;;;;2076070;28;20216;-55
2022/09/26 04:38:31;;;;;;;2.30;2.10;;;;;20.30;99470.00;;;;2077134;28;20249;-56
2022/09/26 04:39:32;;;;;;;4.00;2.80;;;;;20.30;99453.00;;;;2077610;28;20205;-55
2022/09/26 04:40:32;;;;;;;5.37;2.90;;;;;20.30;99456.00;;;;2075118;28;20225;-55
2022/09/26 04:41:33;;;;;;;3.10;2.80;;;;;20.30;99454.00;;;;2077339;28;20267;-55
2022/09/26 04:42:35;;;;;;;5.00;2.73;;;;;20.30;99457.00;;;;2077524;28;20228;-55
2022/09/26 04:43:36;;;;;;;3.55;3.00;;;;;20.30;99450.00;;;;2077342;28;20662;-55
2022/09/26 04:44:36;;;;;;;3.60;2.67;;;;;20.30;99453.00;;;;2077477;28;20255;-55
2022/09/26 04:45:41;;;;;;;3.10;2.57;;;;;20.30;99455.00;;;;2077760;28;20213;-55
2022/09/26 04:46:41;;;;;;;3.45;2.97;;;;;20.30;99448.00;;;;2077882;28;20249;-55
2022/09/26 04:47:42;;;;;;;2.70;2.50;;;;;20.30;99447.00;;;;2076823;28;20218;-55
2022/09/26 04:48:42;;;;;;;5.10;2.87;;;;;20.30;99446.00;;;;2077527;28;20232;-56
2022/09/26 04:49:42;;;;;;;3.90;3.10;;;;;20.30;99441.00;;;;2077721;28;20225;-55
2022/09/26 04:50:43;;;;;;;3.50;2.83;;;;;20.30;99439.00;;;;2078185;28;20217;-55
2022/09/26 04:51:43;;;;;;;3.20;2.23;;;;;20.20;99441.00;;;;2078176;28;20206;-55
2022/09/26 04:52:44;;;;;;;4.03;3.07;;;;;20.30;99444.00;;;;2078180;28;20216;-55
2022/09/26 04:53:44;;;;;;;3.30;3.00;;;;;20.30;99434.00;;;;2074671;28;20258;-55
2022/09/26 04:54:44;;;;;;;2.87;2.57;;;;;20.30;99431.00;;;;2077048;28;20218;-55
2022/09/26 04:55:45;;;;;;;2.97;2.67;;;;;20.30;99436.00;;;;2077520;28;20226;-55
2022/09/26 04:56:46;;;;;;;2.60;2.40;;;;;20.30;99432.00;;;;2077394;28;20248;-56
2022/09/26 04:57:49;;;;;;;3.00;2.60;;;;;20.30;99435.00;;;;2076130;28;20224;-55
2022/09/26 04:58:50;;;;;;;3.28;2.60;;;;;20.30;99428.00;;;;2077814;28;20233;-55
2022/09/26 04:59:50;;;;;;;3.83;3.43;;;;;20.20;99430.00;;;;2076686;28;20563;-55
2022/09/26 05:00:51;;;;;;;3.17;2.87;;;;;20.20;99436.00;;;;2076707;28;20308;-55
2022/09/26 05:01:52;;;;;;;3.00;2.70;;;;;20.30;99426.00;;;;2077370;28;20217;-55
2022/09/26 05:02:53;;;;;;;3.10;2.50;;;;;20.30;99423.00;;;;2077382;28;20459;-55
2022/09/26 05:03:57;;;;;;;4.97;2.90;;;;;20.30;99428.00;;;;2077174;28;20582;-55
2022/09/26 05:04:58;;;;;;;3.90;3.00;;;;;20.30;99423.00;;;;2073830;28;20210;-56
2022/09/26 05:05:59;;;;;;;3.10;2.60;;;;;20.20;99429.00;;;;2069124;28;20214;-56
2022/09/26 05:07:00;;;;;;;3.33;3.03;;;;;20.30;99425.00;;;;2069219;28;20210;-56
2022/09/26 05:08:00;;;;;;;2.83;2.63;;;;;20.30;99421.00;;;;2070491;28;20460;-55
2022/09/26 05:09:01;;;;;;;3.60;2.70;;;;;20.30;99423.00;;;;2077465;28;20213;-55
2022/09/26 05:10:01;;;;;;;5.40;3.37;;;;;20.30;99411.00;;;;2077449;28;20206;-55
2022/09/26 05:11:02;;;;;;;4.60;3.43;;;;;20.30;99405.00;;;;2077297;28;20209;-55
2022/09/26 05:12:02;;;;;;;3.70;2.60;;;;;20.20;99402.00;;;;2077378;28;20213;-55
2022/09/26 05:13:03;;;;;;;3.97;3.03;;;;;20.20;99404.00;;;;2076208;28;20623;-55
2022/09/26 05:14:03;;;;;;;4.43;2.73;;;;;20.20;99400.00;;;;2077487;28;20218;-54
2022/09/26 05:15:07;;;;;;;4.87;3.30;;;;;20.20;99395.00;;;;2078011;28;20255;-55
2022/09/26 05:16:08;;;;;;;2.95;2.67;;;;;20.20;99404.00;;;;2077944;28;20209;-54
2022/09/26 05:17:09;;;;;;;3.50;2.90;;;;;20.30;99398.00;;;;2077620;28;20336;-55
2022/09/26 05:18:10;;;;;;;4.07;3.17;;;;;20.20;99305.00;;;;2076608;28;20448;-56
2022/09/26 05:19:10;;;;;;;5.87;2.77;;;;;20.20;99398.00;;;;2077732;28;20968;-54
2022/09/26 05:20:11;;;;;;;3.03;2.60;;;;;20.20;99387.00;;;;2077969;28;20206;-55
2022/09/26 05:21:11;;;;;;;2.87;2.57;;;;;20.20;99390.00;;;;2077820;28;20209;-55
2022/09/26 05:22:11;;;;;;;3.17;2.40;;;;;20.20;99393.00;;;;2077445;28;20244;-55
2022/09/26 05:23:11;;;;;;;3.83;3.00;;;;;20.20;99394.00;;;;2077862;28;20271;-55
2022/09/26 05:26:56;;;;;;;2.67;2.47;;;;;20.20;99382.00;;;;2077468;28;20209;-54